EmailTwitter


Observations de surface / Québec / LFKJ

Régions: Québec | Canada | États-Unis | Europe | France | UK | Elsewhere
Station
Affichage
Infos & localisation pour LFKJ | Aide pour décoder les METARs

Observations prises le 2017-05-24 à 05H30 UTC à AJACCIO/CAMPO OR, FR (LFKJ)

Etat du ciel: partiellement nuageux.

Température: 14.0 Celsius

Point de rosée: 10.0 Celsius

Humidité relative: 77%

Vents: Nord-est à 6 km/h ou 3 noeuds.

Pression au niveau moyen de la mer: 101.90 kilopascals.

Visibilité horizontale: 6.21 milles terrestres ou 9.94 kilomètres.

Hauteur du plafond: 7925 mètres ( 26000 pieds ).

Observation METAR:

LFKJ 240530Z 05003KT 9999 FEW010 BKN260 14/10 Q1019 NOSIG=